Winter 2017

Weather problems still in Skiathos

Today, Monday January, 9 2017 problems due to weather are still affecting flights in Skiathos.

Saturdays’ flight, Olympic Air flight 072 from Athens arrived today in Skiathos but unfortunately scheduled flight of Monday, Sky Express -050 was not able to land due to low cloud base and snow.

METAR 090950Z 33010G20KT 9999 FEW016 BKN020 M01/M04 Q1016

TAF 090800Z 0909/0918 34015KT 9999 FEW015 BKN020 PROB40 TEMPO
0909/0918 2000 SN BKN008 BKN020 OVC060 TEMPO 0909/0912
34015G25KT

Below OA-072 Dash 8-100 SX-BIO arrived after two days.